Decoded Metar for PADU (UNALASKA in AK, USA) (IATA:DUT) | Meteo·Mobile Aviation Weather
aviador You're here:

PADU Decoded Metar

UNALASKA in AK, USA
Report Time2018-08-19 13:56:00
UTC Time2018-08-19 14:06:07
Flight Rules ifr IFR
Wind070° at 09 kt
W.Decomp.*RWY 12: 3.9 kt HW 8.1 kt LCW
W.Rank070° ranks 28
Current wind is above 070° avg. (7.9)
Visibility9999 m
Phenomena:N/A
Clouds:Broken 009 Hf
Overcast 014 Hf
Expected CloudBase > 800 ft AGL from Temp-Dew spread
Ceiling900 ft
Temp11°C (ISA -4)
Dew Point09°C (88% RH)
AAT7.6°C
QNH1004 hPa
Density Alt0 ft
Elevation13 ft
Report Wrong Elevation
Raw Report
PADU 191356Z 07009KT 7SM BKN009 OVC014 11/09 A2965 RMK AO2 CIG
007V011 SLP043 T01060094=

Extra information for PADU:More info

Metar Taf Metar & Taf Last 4 Metars F.Rules Stats Wind Profile Meteogram Temp Stats Airport Information Weather charts Add Link Nearby VenuesMetar ALERT Operation Metar Decoded Social comments

AIRNAV info for PADU